Time;durP1;ratioP1;P1;durP2;ratioP2;P2;SDS_P1;SDS_P2;PMS_P1;PMS_P2;Temp;Humidity;BMP_temperature;BMP_pressure;BME280_temperature;BME280_humidity;BME280_pressure;Samples;Min_cycle;Max_cycle;Signal;HPM_P1;HPM_P2
2021/09/23 00:00:37;;;;;;;13.05;8.57;;;;;;;9.63;78.30;97103.53;5091137;28;20044;-72
2021/09/23 00:03:31;;;;;;;15.65;8.75;;;;;;;9.60;78.03;97104.09;5090291;28;20490;-72
2021/09/23 00:05:58;;;;;;;14.55;8.60;;;;;;;9.55;78.19;97101.50;5090671;28;20060;-72
2021/09/23 00:08:25;;;;;;;14.70;9.02;;;;;;;9.53;78.57;97098.25;5090185;28;20055;-72
2021/09/23 00:10:52;;;;;;;12.52;8.80;;;;;;;9.56;78.88;97103.09;5090743;28;20052;-73
2021/09/23 00:13:20;;;;;;;14.07;9.50;;;;;;;9.59;79.29;97097.06;5090338;28;20059;-73
2021/09/23 00:15:46;;;;;;;13.20;8.90;;;;;;;9.61;79.06;97086.72;5090900;28;20044;-73
2021/09/23 00:18:15;;;;;;;15.88;9.15;;;;;;;9.61;79.06;97091.34;5089841;28;20044;-72
2021/09/23 00:20:44;;;;;;;15.55;9.82;;;;;;;9.60;79.03;97090.50;5089866;28;20051;-72
2021/09/23 00:23:11;;;;;;;13.90;8.50;;;;;;;9.62;79.05;97085.63;5089381;28;20063;-72
2021/09/23 00:25:38;;;;;;;13.10;9.27;;;;;;;9.65;78.94;97076.03;5090110;28;20064;-72
2021/09/23 00:28:06;;;;;;;15.35;9.13;;;;;;;9.63;78.57;97076.34;5089919;28;20048;-72
2021/09/23 00:30:35;;;;;;;14.73;8.98;;;;;;;9.64;78.89;97075.22;5089702;28;20059;-72
2021/09/23 00:33:03;;;;;;;15.52;9.95;;;;;;;9.66;78.54;97073.06;5089455;28;20044;-72
2021/09/23 00:35:29;;;;;;;17.38;9.73;;;;;;;9.69;78.46;97068.91;5089437;28;20063;-73
2021/09/23 00:37:56;;;;;;;15.98;10.25;;;;;;;9.70;78.29;97070.53;5089664;28;20059;-73
2021/09/23 00:40:23;;;;;;;13.27;8.82;;;;;;;9.66;78.48;97067.59;5088943;28;20052;-73
2021/09/23 00:42:50;;;;;;;14.20;9.75;;;;;;;9.64;78.41;97069.78;5089540;28;20709;-72
2021/09/23 00:45:21;;;;;;;13.95;9.48;;;;;;;9.67;78.42;97065.69;5088980;28;20765;-72
2021/09/23 00:47:50;;;;;;;16.05;9.82;;;;;;;9.68;78.32;97062.66;5089431;28;20052;-72
2021/09/23 00:50:20;;;;;;;16.38;9.32;;;;;;;9.72;78.28;97070.25;5088928;28;20051;-72
2021/09/23 00:52:47;;;;;;;16.20;9.15;;;;;;;9.73;77.96;97074.59;5089150;28;20062;-71
2021/09/23 00:55:14;;;;;;;14.45;8.95;;;;;;;9.72;78.12;97071.06;5089026;28;20499;-71
2021/09/23 00:57:41;;;;;;;15.48;9.20;;;;;;;9.70;77.82;97077.88;5089345;28;20059;-71
2021/09/23 01:00:11;;;;;;;13.35;9.07;;;;;;;9.70;77.99;97077.88;5088532;28;20051;-71
2021/09/23 01:02:38;;;;;;;12.40;8.55;;;;;;;9.68;78.00;97073.56;5089413;28;20048;-71
2021/09/23 01:05:07;;;;;;;13.10;8.20;;;;;;;9.65;78.04;97082.28;5088686;28;20067;-72
2021/09/23 01:07:34;;;;;;;14.02;9.18;;;;;;;9.61;78.22;97084.00;5089106;28;20052;-72
2021/09/23 01:10:02;;;;;;;15.43;9.15;;;;;;;9.65;77.56;97079.56;5089499;28;20048;-71
2021/09/23 01:12:30;;;;;;;11.75;8.23;;;;;;;9.64;77.12;97083.41;5088949;28;20134;-73
2021/09/23 01:14:56;;;;;;;10.52;7.80;;;;;;;9.63;76.77;97081.78;5089110;28;20052;-71
2021/09/23 01:17:23;;;;;;;13.25;8.65;;;;;;;9.58;76.22;97079.13;5089013;28;20058;-71
2021/09/23 01:19:50;;;;;;;17.10;9.02;;;;;;;9.54;76.88;97083.53;5089065;28;20059;-71
2021/09/23 01:22:18;;;;;;;14.57;9.13;;;;;;;9.52;77.30;97083.03;5088285;28;20059;-71
2021/09/23 01:24:45;;;;;;;13.93;8.43;;;;;;;9.55;76.92;97082.47;5089054;28;20051;-71
2021/09/23 01:27:14;;;;;;;11.75;8.25;;;;;;;9.55;76.29;97087.91;5088574;28;20083;-71
2021/09/23 01:29:41;;;;;;;15.07;8.07;;;;;;;9.48;76.74;97083.91;5089174;28;20052;-72
2021/09/23 01:32:09;;;;;;;14.32;8.48;;;;;;;9.38;77.07;97087.56;5088334;28;20044;-71
2021/09/23 01:34:36;;;;;;;11.32;7.85;;;;;;;9.33;77.04;97083.00;5088933;28;20051;-71
2021/09/23 01:37:03;;;;;;;13.82;8.18;;;;;;;9.30;77.40;97078.16;5088508;28;20070;-72
2021/09/23 01:39:31;;;;;;;12.77;8.02;;;;;;;9.26;77.25;97079.03;5088918;28;20052;-72
2021/09/23 01:41:58;;;;;;;15.20;8.45;;;;;;;9.20;77.02;97078.31;5088836;28;20052;-71
2021/09/23 01:44:25;;;;;;;12.63;8.50;;;;;;;9.19;77.15;97071.25;5088530;28;20051;-73
2021/09/23 01:46:52;;;;;;;12.70;7.97;;;;;;;9.21;76.71;97073.66;5088296;28;20059;-72
2021/09/23 01:49:18;;;;;;;12.50;8.65;;;;;;;9.17;77.07;97067.19;5087961;28;20044;-71
2021/09/23 01:51:45;;;;;;;14.25;8.60;;;;;;;9.14;77.16;97063.97;5085868;28;20560;-71
2021/09/23 01:54:12;;;;;;;12.75;8.32;;;;;;;9.10;77.50;97054.78;5088191;28;20067;-71
2021/09/23 01:56:40;;;;;;;14.05;8.55;;;;;;;9.09;77.70;97045.00;5088451;28;20052;-71
2021/09/23 01:59:07;;;;;;;11.90;7.80;;;;;;;9.06;77.18;97051.00;5087993;28;20489;-71
2021/09/23 02:01:34;;;;;;;13.82;7.80;;;;;;;8.99;77.51;97045.16;5088198;28;20048;-72
2021/09/23 02:04:00;;;;;;;11.38;7.43;;;;;;;8.98;77.55;97048.97;5088472;28;20052;-72
2021/09/23 02:06:27;;;;;;;12.63;8.45;;;;;;;8.94;77.58;97047.13;5087729;28;20059;-72
2021/09/23 02:08:53;;;;;;;16.45;9.05;;;;;;;8.93;77.88;97046.31;5088275;28;20040;-72
2021/09/23 02:11:21;;;;;;;15.15;8.30;;;;;;;8.90;78.08;97041.44;5087936;28;20070;-72
2021/09/23 02:13:49;;;;;;;11.00;7.63;;;;;;;8.87;78.20;97042.00;5087977;28;20048;-72
2021/09/23 02:16:15;;;;;;;12.27;8.18;;;;;;;8.87;78.08;97025.72;5086731;28;20059;-72
2021/09/23 02:18:42;;;;;;;12.38;7.80;;;;;;;8.85;77.83;97019.78;5087705;28;20059;-72
2021/09/23 02:21:08;;;;;;;15.38;8.88;;;;;;;8.84;78.03;97015.44;5087548;28;20063;-72
2021/09/23 02:23:35;;;;;;;14.07;8.45;;;;;;;8.83;77.78;97009.22;5088253;28;20059;-72
2021/09/23 02:26:01;;;;;;;12.98;8.80;;;;;;;8.82;78.19;97014.91;5087729;28;20056;-72
2021/09/23 02:28:29;;;;;;;14.23;9.00;;;;;;;8.83;78.45;97013.84;5087990;28;20052;-72
2021/09/23 02:30:57;;;;;;;14.50;8.43;;;;;;;8.82;78.22;97014.91;5087943;28;20113;-72
2021/09/23 02:33:24;;;;;;;14.52;8.98;;;;;;;8.85;77.90;97011.63;5087725;28;20410;-72
2021/09/23 02:35:50;;;;;;;13.90;8.35;;;;;;;8.83;77.91;97008.41;5087809;28;20052;-72
2021/09/23 02:38:17;;;;;;;11.30;8.10;;;;;;;8.87;77.43;97014.84;5087221;28;20073;-72
2021/09/23 02:40:43;;;;;;;14.23;8.48;;;;;;;8.87;77.74;97017.56;5087525;28;20051;-72
2021/09/23 02:43:09;;;;;;;15.95;8.75;;;;;;;8.86;77.45;97014.03;5087214;28;20681;-72
2021/09/23 02:45:36;;;;;;;15.48;8.52;;;;;;;8.84;78.13;97010.03;5087592;28;20411;-73
2021/09/23 02:48:04;;;;;;;12.98;8.63;;;;;;;8.82;78.24;96996.75;5087361;28;20067;-71
2021/09/23 02:50:31;;;;;;;16.23;8.30;;;;;;;8.79;78.16;96997.31;5087458;28;20055;-72
2021/09/23 02:52:57;;;;;;;12.70;8.50;;;;;;;8.81;78.45;96999.72;5087825;28;20056;-72
2021/09/23 02:55:24;;;;;;;13.90;8.10;;;;;;;8.80;77.98;96992.69;5087459;28;20040;-72
2021/09/23 02:57:52;;;;;;;13.60;8.32;;;;;;;8.81;77.57;96994.28;5087745;28;20048;-72
2021/09/23 03:00:19;;;;;;;12.85;8.60;;;;;;;8.84;77.54;96993.72;5086932;28;20109;-72
2021/09/23 03:02:46;;;;;;;13.95;8.40;;;;;;;8.86;77.28;96991.50;5087392;28;20048;-72
2021/09/23 03:05:14;;;;;;;12.48;7.97;;;;;;;8.88;77.13;96992.84;5087771;28;20744;-72
2021/09/23 03:07:40;;;;;;;12.80;7.78;;;;;;;8.88;76.84;96986.63;5087598;28;20047;-72
2021/09/23 03:10:07;;;;;;;12.15;7.43;;;;;;;8.85;77.00;96990.72;5087370;28;20048;-71
2021/09/23 03:12:34;;;;;;;14.95;8.18;;;;;;;8.80;76.76;96989.97;5087549;28;20052;-72
2021/09/23 03:15:00;;;;;;;15.27;8.15;;;;;;;8.80;76.27;96984.53;5087546;28;20047;-72
2021/09/23 03:17:27;;;;;;;12.23;7.45;;;;;;;8.77;76.01;96980.50;5086877;28;20047;-72
2021/09/23 03:19:53;;;;;;;12.18;8.27;;;;;;;8.72;76.74;96990.59;5087459;28;20082;-71
2021/09/23 03:22:22;;;;;;;12.02;8.13;;;;;;;8.70;77.23;96992.81;5086735;28;20055;-71
2021/09/23 03:24:49;;;;;;;12.57;8.35;;;;;;;8.69;77.63;96996.63;5087597;28;20048;-72
2021/09/23 03:27:15;;;;;;;17.35;9.27;;;;;;;8.67;76.71;96987.97;5088899;28;20147;-72
2021/09/23 03:29:42;;;;;;;12.32;8.10;;;;;;;8.68;76.89;96995.00;5091368;28;20553;-72
2021/09/23 03:32:09;;;;;;;14.68;8.20;;;;;;;8.66;77.02;96994.47;5090669;28;20055;-71
2021/09/23 03:34:36;;;;;;;16.15;8.95;;;;;;;8.60;77.96;96985.59;5091551;28;20052;-72
2021/09/23 03:37:03;;;;;;;14.60;9.30;;;;;;;8.59;78.02;96978.53;5090744;28;20498;-72
2021/09/23 03:39:30;;;;;;;14.15;9.13;;;;;;;8.63;77.97;96977.69;5091109;28;20068;-71
2021/09/23 03:41:57;;;;;;;14.48;8.93;;;;;;;8.66;77.60;96980.91;5091234;28;20052;-71
2021/09/23 03:44:23;;;;;;;17.13;10.00;;;;;;;8.66;77.98;96975.47;5090635;28;20068;-72
2021/09/23 03:46:50;;;;;;;16.25;10.30;;;;;;;8.60;77.91;96974.72;5090927;28;20056;-71
2021/09/23 03:49:16;;;;;;;18.10;10.75;;;;;;;8.60;78.38;96967.38;5090652;28;20056;-71
2021/09/23 03:51:43;;;;;;;16.48;9.57;;;;;;;8.58;78.55;96963.34;5090576;28;20052;-71
2021/09/23 03:54:10;;;;;;;16.17;9.13;;;;;;;8.57;78.63;96957.13;5090134;28;20052;-71
2021/09/23 03:56:37;;;;;;;15.88;9.73;;;;;;;8.55;78.84;96953.88;5090506;28;20040;-71
2021/09/23 03:59:04;;;;;;;16.98;10.48;;;;;;;8.54;78.70;96946.84;5089940;28;20063;-71
2021/09/23 04:01:30;;;;;;;20.27;11.48;;;;;;;8.56;78.90;96952.81;5090828;28;20055;-71
2021/09/23 04:03:57;;;;;;;21.15;10.55;;;;;;;8.56;79.11;96939.22;5090568;28;20044;-71
2021/09/23 04:06:23;;;;;;;16.30;10.35;;;;;;;8.57;78.88;96929.97;5089700;28;20044;-71
2021/09/23 04:08:50;;;;;;;16.30;9.98;;;;;;;8.59;79.01;96926.97;5090407;28;20052;-71
2021/09/23 04:11:17;;;;;;;16.98;10.55;;;;;;;8.59;79.45;96922.34;5090074;28;20781;-71
2021/09/23 04:13:45;;;;;;;16.85;10.25;;;;;;;8.59;78.93;96916.91;5090275;28;20044;-71
2021/09/23 04:16:11;;;;;;;16.10;9.63;;;;;;;8.57;78.81;96916.41;5089775;28;20052;-72
2021/09/23 04:18:38;;;;;;;17.77;10.10;;;;;;;8.53;78.53;96907.22;5090261;28;20067;-71
2021/09/23 04:21:04;;;;;;;15.15;9.57;;;;;;;8.53;78.68;96907.22;5089661;28;20048;-71
2021/09/23 04:23:31;;;;;;;16.70;9.65;;;;;;;8.55;78.75;96901.50;5090215;28;20052;-71
2021/09/23 04:25:57;;;;;;;15.82;10.02;;;;;;;8.59;78.47;96902.53;5090380;28;20051;-71
2021/09/23 04:28:24;;;;;;;18.02;10.35;;;;;;;8.61;77.84;96906.59;5089685;28;20048;-72
2021/09/23 04:30:52;;;;;;;14.20;9.55;;;;;;;8.57;78.08;96902.03;5090024;28;20440;-71
2021/09/23 04:33:18;;;;;;;14.65;9.90;;;;;;;8.57;78.47;96902.84;5089718;28;20055;-72
2021/09/23 04:35:46;;;;;;;17.75;10.35;;;;;;;8.58;78.49;96898.22;5089691;28;20044;-72
2021/09/23 04:38:17;;;;;;;17.58;9.75;;;;;;;8.60;78.26;96902.22;5088753;28;20098;-71
2021/09/23 04:40:43;;;;;;;15.13;9.25;;;;;;;8.58;78.38;96893.59;5089993;28;20060;-72
2021/09/23 04:43:10;;;;;;;15.13;10.10;;;;;;;8.56;78.19;96886.81;5089419;28;20052;-72
2021/09/23 04:45:36;;;;;;;18.83;11.20;;;;;;;8.50;78.32;96896.94;5089451;28;20060;-72
2021/09/23 04:48:04;;;;;;;14.85;8.80;;;;;;;8.49;78.69;96883.66;5089341;28;20052;-73
2021/09/23 04:50:31;;;;;;;17.13;10.18;;;;;;;8.47;78.62;96883.97;5089693;28;20139;-72
2021/09/23 04:52:57;;;;;;;16.65;10.13;;;;;;;8.49;77.92;96887.19;5089483;28;20063;-72
2021/09/23 04:55:24;;;;;;;19.77;11.75;;;;;;;8.45;78.24;96883.44;5088932;28;20506;-72
2021/09/23 04:57:50;;;;;;;18.92;11.57;;;;;;;8.45;78.59;96888.84;5089362;28;20135;-72
2021/09/23 05:00:18;;;;;;;17.35;10.48;;;;;;;8.48;78.45;96887.47;5088941;28;20052;-72
2021/09/23 05:02:44;;;;;;;16.40;10.10;;;;;;;8.49;78.46;96892.63;5089127;28;20059;-72
2021/09/23 05:05:13;;;;;;;17.33;10.65;;;;;;;8.50;78.29;96891.50;5088925;28;20048;-72
2021/09/23 05:07:39;;;;;;;19.45;10.15;;;;;;;8.50;78.20;96888.78;5089645;28;20044;-72
2021/09/23 05:10:07;;;;;;;19.13;10.48;;;;;;;8.43;78.44;96885.63;5088966;28;20055;-72
2021/09/23 05:12:33;;;;;;;18.95;10.90;;;;;;;8.40;78.79;96888.94;5089115;28;20048;-72
2021/09/23 05:15:00;;;;;;;18.00;10.20;;;;;;;8.39;78.88;96889.22;5089273;28;20055;-72
2021/09/23 05:17:26;;;;;;;18.88;10.50;;;;;;;8.39;79.00;96890.03;5088914;28;20044;-72
2021/09/23 05:19:53;;;;;;;17.50;11.02;;;;;;;8.38;78.96;96883.00;5088909;28;20059;-72
2021/09/23 05:22:24;;;;;;;19.95;11.02;;;;;;;8.37;78.73;96873.25;5088728;28;20047;-72
2021/09/23 05:24:51;;;;;;;21.83;11.40;;;;;;;8.35;78.99;96868.09;5089476;28;20578;-71
2021/09/23 05:27:18;;;;;;;18.27;11.32;;;;;;;8.39;78.84;96868.31;5088639;28;20117;-72
2021/09/23 05:29:44;;;;;;;19.08;10.65;;;;;;;8.46;78.28;96860.66;5088974;28;20071;-72
2021/09/23 05:32:11;;;;;;;16.13;9.82;;;;;;;8.48;77.80;96855.72;5088401;28;20051;-72
2021/09/23 05:34:37;;;;;;;16.95;10.15;;;;;;;8.49;77.96;96851.91;5089023;28;20056;-72
2021/09/23 05:37:04;;;;;;;16.67;10.63;;;;;;;8.50;78.18;96853.50;5088693;28;20086;-72
2021/09/23 05:39:32;;;;;;;17.42;10.30;;;;;;;8.48;78.74;96850.28;5089112;28;20044;-71
2021/09/23 05:41:58;;;;;;;18.38;10.20;;;;;;;8.48;78.84;96841.34;5088450;28;20050;-72
2021/09/23 05:44:25;;;;;;;18.58;10.80;;;;;;;8.52;78.40;96843.19;5087766;28;20048;-72
2021/09/23 05:46:52;;;;;;;18.08;10.77;;;;;;;8.59;78.44;96846.34;5087717;28;20051;-72
2021/09/23 05:49:19;;;;;;;15.77;10.57;;;;;;;8.62;78.27;96839.53;5087001;28;20661;-72
2021/09/23 05:51:45;;;;;;;19.63;11.68;;;;;;;8.63;79.37;96831.06;5087385;28;20048;-72
2021/09/23 05:54:12;;;;;;;19.75;12.02;;;;;;;8.67;79.74;96831.31;5087692;28;20051;-72
2021/09/23 05:56:41;;;;;;;18.80;10.48;;;;;;;8.70;79.89;96836.13;5088702;28;20052;-72
2021/09/23 05:59:08;;;;;;;17.55;11.35;;;;;;;8.73;79.91;96840.19;5087966;28;20125;-72
2021/09/23 06:01:35;;;;;;;22.00;11.43;;;;;;;8.74;79.73;96830.94;5088170;28;20059;-72
2021/09/23 06:04:01;;;;;;;22.08;11.38;;;;;;;8.80;80.11;96835.19;5088077;28;20055;-71
2021/09/23 06:06:28;;;;;;;20.52;11.35;;;;;;;8.91;79.84;96839.34;5088401;28;20044;-72
2021/09/23 06:08:54;;;;;;;22.00;11.52;;;;;;;8.97;79.32;96843.59;5088435;28;20044;-73
2021/09/23 06:11:21;;;;;;;17.00;10.70;;;;;;;9.05;79.79;96842.94;5088007;28;20048;-72
2021/09/23 06:13:49;;;;;;;22.90;11.50;;;;;;;9.08;79.60;96842.38;5088494;28;20048;-72
2021/09/23 06:16:15;;;;;;;26.63;10.50;;;;;;;9.11;79.53;96841.75;5087881;28;20047;-72
2021/09/23 06:18:42;;;;;;;17.45;9.80;;;;;;;9.16;79.17;96843.59;5088241;28;20052;-72
2021/09/23 06:21:09;;;;;;;16.27;10.15;;;;;;;9.22;79.52;96847.81;5087711;28;20048;-72
2021/09/23 06:23:35;;;;;;;18.35;10.63;;;;;;;9.32;79.03;96835.97;5088361;28;20062;-72
2021/09/23 06:26:02;;;;;;;17.23;10.43;;;;;;;9.38;79.26;96837.50;5086986;28;20056;-72
2021/09/23 06:28:30;;;;;;;19.25;10.00;;;;;;;9.44;79.81;96833.59;5087510;28;20697;-72
2021/09/23 06:31:01;;;;;;;16.13;9.88;;;;;;;9.57;79.13;96840.97;5088022;28;20052;-73
2021/09/23 06:33:28;;;;;;;19.63;10.00;;;;;;;9.66;79.32;96827.50;5087421;28;20040;-72
2021/09/23 06:35:55;;;;;;;13.30;9.25;;;;;;;9.77;79.21;96836.28;5087944;28;20044;-72
2021/09/23 06:38:21;;;;;;;15.27;9.20;;;;;;;9.81;78.77;96837.25;5087153;28;20044;-72
2021/09/23 06:40:48;;;;;;;16.90;9.85;;;;;;;9.86;78.87;96829.81;5087821;28;20079;-72
2021/09/23 06:43:14;;;;;;;15.52;9.57;;;;;;;9.96;78.40;96819.84;5087194;28;20724;-72
2021/09/23 06:45:41;;;;;;;16.80;10.30;;;;;;;9.99;77.66;96822.78;5087495;28;20048;-72
2021/09/23 06:48:09;;;;;;;14.07;8.23;;;;;;;10.06;77.70;96816.94;5086919;28;20044;-72
2021/09/23 06:50:35;;;;;;;13.60;9.35;;;;;;;10.12;77.29;96813.78;5086802;28;20052;-72
2021/09/23 06:53:02;;;;;;;16.23;8.10;;;;;;;10.19;77.04;96811.50;5087300;28;20074;-72
2021/09/23 06:55:28;;;;;;;14.20;8.70;;;;;;;10.30;76.97;96811.31;5087660;28;20055;-72
2021/09/23 06:57:54;;;;;;;13.38;8.90;;;;;;;10.44;77.36;96806.66;5087908;28;20676;-72
2021/09/23 07:00:22;;;;;;;14.13;8.35;;;;;;;10.64;76.90;96803.44;5087343;28;20054;-73
2021/09/23 07:02:48;;;;;;;11.75;8.25;;;;;;;10.87;78.00;96809.75;5090173;28;20127;-72
2021/09/23 07:05:16;;;;;;;11.88;8.25;;;;;;;11.10;77.48;96807.00;5091698;28;20051;-72
2021/09/23 07:07:43;;;;;;;12.25;7.90;;;;;;;11.62;75.08;96805.41;5091519;28;20048;-72
2021/09/23 07:10:10;;;;;;;11.18;7.13;;;;;;;12.21;70.18;96797.78;5091155;28;20063;-72
2021/09/23 07:12:36;;;;;;;10.65;7.10;;;;;;;13.11;68.68;96801.91;5091555;28;20521;-72
2021/09/23 07:15:03;;;;;;;14.90;7.38;;;;;;;14.05;66.21;96797.31;5090932;28;20522;-72
2021/09/23 07:17:31;;;;;;;10.23;6.47;;;;;;;14.79;61.70;96809.63;5091486;28;20056;-72
2021/09/23 07:19:57;;;;;;;11.90;6.45;;;;;;;15.60;59.21;96805.50;5091503;28;20125;-73
2021/09/23 07:22:25;;;;;;;10.63;6.32;;;;;;;16.09;56.86;96805.63;5091070;28;20055;-72
2021/09/23 07:24:52;;;;;;;9.60;6.28;;;;;;;16.50;54.74;96803.78;5091962;28;20048;-72
2021/09/23 07:27:18;;;;;;;8.15;6.00;;;;;;;16.96;54.40;96799.69;5091043;28;20052;-72
2021/09/23 07:29:45;;;;;;;8.30;5.40;;;;;;;17.29;51.56;96798.69;5091115;28;20059;-72
2021/09/23 07:32:11;;;;;;;7.70;5.15;;;;;;;17.59;51.96;96805.44;5090250;28;20044;-72
2021/09/23 07:34:38;;;;;;;20.98;11.18;;;;;;;18.04;52.37;96798.75;5090355;28;20054;-73
2021/09/23 07:37:06;;;;;;;8.13;5.60;;;;;;;18.50;50.67;96794.34;5090927;28;20749;-74
2021/09/23 07:39:34;;;;;;;9.10;5.47;;;;;;;18.87;49.07;96787.69;5091285;28;20056;-74
2021/09/23 07:42:02;;;;;;;6.93;5.20;;;;;;;19.22;48.53;96784.88;5091127;28;20055;-74
2021/09/23 07:44:28;;;;;;;6.50;5.40;;;;;;;19.44;46.99;96789.66;5090911;28;20047;-75
2021/09/23 07:46:59;;;;;;;10.57;5.25;;;;;;;19.70;46.59;96788.22;5091494;28;20055;-74
2021/09/23 07:49:25;;;;;;;9.05;5.28;;;;;;;20.13;46.99;96794.47;5090826;28;20048;-74
2021/09/23 07:51:52;;;;;;;7.57;5.00;;;;;;;20.63;46.41;96789.78;5090670;28;20059;-74
2021/09/23 07:54:18;;;;;;;9.60;4.55;;;;;;;20.98;44.73;96787.50;5090387;28;20055;-74
2021/09/23 07:56:46;;;;;;;6.80;4.75;;;;;;;21.26;43.18;96777.97;5091351;28;20059;-75
2021/09/23 07:59:13;;;;;;;11.63;4.97;;;;;;;21.66;43.16;96779.22;5090494;28;20051;-75
2021/09/23 08:01:39;;;;;;;8.60;5.45;;;;;;;21.93;42.84;96783.47;5090865;28;20494;-75
2021/09/23 08:04:06;;;;;;;9.02;5.18;;;;;;;22.32;42.78;96778.28;5090559;28;20498;-74
2021/09/23 08:06:32;;;;;;;9.30;4.95;;;;;;;22.63;41.86;96776.13;5090788;28;20121;-74
2021/09/23 08:08:59;;;;;;;6.82;4.90;;;;;;;23.00;41.02;96764.09;5090916;28;20514;-74
2021/09/23 08:11:26;;;;;;;8.20;4.80;;;;;;;23.21;40.68;96768.94;5090089;28;20047;-74
2021/09/23 08:13:53;;;;;;;7.13;4.90;;;;;;;22.89;41.12;96762.03;5089600;28;20039;-74
2021/09/23 08:16:20;;;;;;;6.10;4.72;;;;;;;22.39;41.48;96755.34;5089895;28;20052;-73
2021/09/23 08:18:46;;;;;;;10.00;4.57;;;;;;;22.21;41.28;96749.66;5090390;28;20147;-74
2021/09/23 08:21:13;;;;;;;6.00;4.35;;;;;;;22.29;41.66;96745.78;5089757;28;20062;-75
2021/09/23 08:23:39;;;;;;;7.68;4.65;;;;;;;22.52;41.19;96742.75;5090338;28;20051;-76
2021/09/23 08:26:06;;;;;;;6.88;4.93;;;;;;;22.10;40.72;96744.03;5089557;28;20529;-74
2021/09/23 08:28:35;;;;;;;6.35;4.68;;;;;;;21.53;41.99;96746.25;5090269;28;20052;-74
2021/09/23 08:31:04;;;;;;;8.00;4.90;;;;;;;21.46;43.37;96742.63;5089499;28;20071;-72
2021/09/23 08:33:31;;;;;;;6.65;4.63;;;;;;;21.66;43.30;96734.88;5090196;28;20058;-74
2021/09/23 08:35:57;;;;;;;7.28;5.07;;;;;;;20.98;43.74;96734.09;5090122;28;20414;-74
2021/09/23 08:38:24;;;;;;;7.45;4.75;;;;;;;20.36;45.20;96747.44;5089347;28;20130;-74
2021/09/23 08:40:51;;;;;;;7.80;4.80;;;;;;;20.77;45.62;96743.72;5089838;28;20048;-74
2021/09/23 08:43:18;;;;;;;5.60;4.15;;;;;;;21.28;44.93;96739.59;5089563;28;20048;-74
2021/09/23 08:45:45;;;;;;;5.93;4.45;;;;;;;21.66;42.30;96734.88;5089870;28;20056;-74
2021/09/23 08:48:15;;;;;;;5.65;3.90;;;;;;;21.02;43.54;96735.75;5089686;28;20051;-74
2021/09/23 08:50:42;;;;;;;9.73;4.38;;;;;;;20.15;45.60;96743.19;5089591;28;20064;-74
2021/09/23 08:53:08;;;;;;;8.93;4.65;;;;;;;19.38;49.08;96727.63;5089358;28;20056;-73
2021/09/23 08:55:35;;;;;;;6.15;4.65;;;;;;;19.08;50.05;96724.66;5089882;28;20071;-74
2021/09/23 08:58:04;;;;;;;5.95;4.88;;;;;;;18.94;50.34;96725.16;5089031;28;20055;-73
2021/09/23 09:00:31;;;;;;;7.15;4.47;;;;;;;18.59;51.77;96727.97;5089231;28;20048;-74
2021/09/23 09:03:03;;;;;;;7.88;4.88;;;;;;;18.45;52.42;96736.72;5081005;28;20052;-74
2021/09/23 09:05:32;;;;;;;10.15;4.80;;;;;;;18.45;53.23;96728.44;5069336;28;20476;-74
2021/09/23 09:08:05;;;;;;;7.15;4.57;;;;;;;18.32;51.53;96724.19;5069502;28;20044;-74
2021/09/23 09:10:32;;;;;;;7.18;4.45;;;;;;;18.21;52.71;96725.91;5068881;28;20044;-74
2021/09/23 09:13:01;;;;;;;5.80;4.15;;;;;;;17.85;53.92;96730.56;5069288;28;20041;-74
2021/09/23 09:15:30;;;;;;;9.23;4.80;;;;;;;17.82;54.42;96738.75;5069312;28;20106;-76
2021/09/23 09:17:56;;;;;;;8.48;4.78;;;;;;;17.69;55.05;96738.00;5069063;28;20040;-74
2021/09/23 09:20:23;;;;;;;8.18;4.50;;;;;;;17.70;55.72;96745.91;5071586;28;20574;-74
2021/09/23 09:22:51;;;;;;;7.18;4.63;;;;;;;17.65;54.50;96737.13;5089157;28;20418;-74
2021/09/23 09:25:17;;;;;;;6.18;4.60;;;;;;;17.76;55.53;96737.41;5088581;28;20051;-74
2021/09/23 09:27:45;;;;;;;6.20;3.92;;;;;;;18.44;53.02;96723.28;5089069;28;20410;-74
2021/09/23 09:30:15;;;;;;;8.07;4.05;;;;;;;19.00;53.27;96718.22;5089096;28;20048;-74
2021/09/23 09:32:45;;;;;;;10.25;4.10;;;;;;;19.35;50.39;96724.78;5089048;28;20155;-74
2021/09/23 09:35:15;;;;;;;6.85;4.22;;;;;;;19.72;51.55;96722.31;5088527;28;20067;-74
2021/09/23 09:37:45;;;;;;;6.15;3.90;;;;;;;19.87;48.91;96720.59;5089147;28;20048;-74
2021/09/23 09:40:16;;;;;;;6.13;4.13;;;;;;;19.90;49.13;96723.44;5088120;28;20048;-74
2021/09/23 09:42:46;;;;;;;6.13;3.65;;;;;;;19.96;48.87;96719.19;5088913;28;20063;-74
2021/09/23 09:45:21;;;;;;;7.30;3.75;;;;;;;20.05;50.93;96716.16;5088288;28;20062;-74
2021/09/23 09:47:53;;;;;;;5.13;3.22;;;;;;;20.12;46.95;96709.94;5088889;28;20056;-76
2021/09/23 09:50:21;;;;;;;6.65;3.30;;;;;;;19.87;46.97;96698.50;5088044;28;20048;-75
2021/09/23 09:52:49;;;;;;;5.13;3.35;;;;;;;19.95;49.02;96695.47;5088638;28;20784;-74
2021/09/23 09:55:19;;;;;;;6.68;3.70;;;;;;;19.91;47.86;96689.09;5088404;28;20048;-76
2021/09/23 09:57:47;;;;;;;4.22;3.00;;;;;;;19.93;48.29;96683.19;5088703;28;20047;-74
2021/09/23 10:00:15;;;;;;;6.68;3.30;;;;;;;20.06;47.69;96682.63;5088013;28;20715;-74
2021/09/23 10:02:43;;;;;;;4.75;3.47;;;;;;;20.18;47.81;96675.28;5088311;28;20505;-74
2021/09/23 10:05:11;;;;;;;5.25;3.30;;;;;;;20.16;48.16;96688.69;5088058;28;20079;-74
2021/09/23 10:07:40;;;;;;;5.18;3.25;;;;;;;20.25;49.02;96678.13;5087956;28;20059;-74
2021/09/23 10:10:07;;;;;;;6.50;3.28;;;;;;;20.36;48.40;96679.13;5087887;28;20044;-74
2021/09/23 10:12:37;;;;;;;7.30;3.13;;;;;;;20.54;48.42;96674.63;5087902;28;20059;-74
2021/09/23 10:15:06;;;;;;;8.48;3.53;;;;;;;20.60;48.30;96677.88;5087833;28;20048;-74
2021/09/23 10:17:33;;;;;;;16.83;5.85;;;;;;;20.57;46.06;96673.91;5088398;28;20043;-75
2021/09/23 10:20:01;;;;;;;10.18;3.30;;;;;;;20.51;46.89;96667.06;5087840;28;20063;-73
2021/09/23 10:22:29;;;;;;;4.20;2.97;;;;;;;20.46;48.47;96666.56;5087896;28;20392;-74
2021/09/23 10:24:56;;;;;;;5.65;3.38;;;;;;;20.46;48.73;96663.81;5086853;28;20047;-74
2021/09/23 10:30:11;;;;;;;5.35;3.25;;;;;;;20.18;48.21;96666.97;5087270;28;20070;-75
2021/09/23 10:32:38;;;;;;;6.97;3.33;;;;;;;20.20;49.50;96656.34;5087725;28;20052;-74
2021/09/23 10:35:05;;;;;;;5.28;3.03;;;;;;;20.19;47.41;96657.50;5087283;28;20047;-75
2021/09/23 10:37:32;;;;;;;5.15;3.20;;;;;;;20.12;47.68;96663.75;5087114;28;20052;-74
2021/09/23 10:40:00;;;;;;;4.28;3.17;;;;;;;19.98;47.37;96664.31;5087891;28;20074;-74
2021/09/23 10:42:28;;;;;;;5.72;2.75;;;;;;;19.86;49.34;96663.75;5087378;28;20415;-73
2021/09/23 10:44:56;;;;;;;5.18;3.17;;;;;;;19.72;50.11;96659.56;5087576;28;20518;-74
2021/09/23 10:47:29;;;;;;;4.30;2.95;;;;;;;19.68;49.96;96658.72;5087338;28;20796;-74
2021/09/23 10:49:56;;;;;;;;;;;;;;;19.60;49.40;96648.72;5088010;28;20058;-74
2021/09/23 10:52:25;;;;;;;6.80;3.50;;;;;;;19.58;50.86;96653.78;5086464;28;19931;-74
2021/09/23 10:54:52;;;;;;;5.80;3.42;;;;;;;19.59;50.61;96649.06;5087862;28;20130;-75
2021/09/23 10:57:20;;;;;;;6.43;3.65;;;;;;;19.55;50.70;96644.25;5087566;28;20055;-74
2021/09/23 10:59:47;;;;;;;9.38;3.65;;;;;;;19.38;50.82;96644.78;5087329;28;20554;-75
2021/09/23 11:02:24;;;;;;;8.98;3.33;;;;;;;19.36;52.25;96640.78;5087433;28;20048;-75
2021/09/23 11:04:54;;;;;;;8.85;3.90;;;;;;;19.46;50.66;96629.91;5087484;28;20063;-75
2021/09/23 11:07:22;;;;;;;4.88;3.38;;;;;;;19.44;48.89;96635.00;5087094;28;22198;-75
2021/09/23 11:10:09;;;;;;;4.93;3.50;;;;;;;19.31;50.94;96622.53;5087466;28;20823;-75
2021/09/23 11:12:36;;;;;;;5.60;3.08;;;;;;;19.29;49.17;96616.59;5087311;28;20047;-75
2021/09/23 11:15:04;;;;;;;4.05;2.85;;;;;;;19.24;48.46;96619.66;5086941;28;20518;-74
2021/09/23 11:17:32;;;;;;;5.50;3.28;;;;;;;19.28;50.63;96634.34;5086604;28;20055;-74
2021/09/23 11:20:03;;;;;;;5.78;3.17;;;;;;;19.35;51.16;96628.94;5086778;28;20062;-74
2021/09/23 11:22:34;;;;;;;5.97;3.08;;;;;;;19.50;49.60;96630.75;5086534;28;20415;-76
2021/09/23 11:25:04;;;;;;;7.97;3.17;;;;;;;19.51;48.23;96626.84;5086971;28;20048;-74
2021/09/23 11:27:31;;;;;;;6.60;2.95;;;;;;;19.53;47.25;96627.28;5086864;28;20059;-75
2021/09/23 11:29:58;;;;;;;8.07;3.70;;;;;;;19.51;48.13;96626.03;5087530;28;20048;-74
2021/09/23 11:32:24;;;;;;;7.68;2.92;;;;;;;19.55;46.93;96640.72;5086593;28;20044;-75
2021/09/23 11:34:57;;;;;;;6.68;3.53;;;;;;;19.63;47.77;96630.59;5087024;28;20059;-74